This is the latest recevied weather packets stored in our database for station/object N1LJK-13. If no packets are shown the sender has not sent any weather packets the latest 1 day(s).
| Time | Temp. | Humidity | Pressure | Rain* | Wind** | Luminosity | Snow |
|---|---|---|---|---|---|---|---|
| 1778101533 | 11.67° C | 73% | 1008.8 hPa | 0.76 mm | - | - | - |
| 1778096733 | 12.22° C | 98% | 1009.3 hPa | 0 mm | - | - | - |
| 1778076333 | 13.89° C | 98% | 1011.8 hPa | 0 mm | - | - | - |
| 1778064333 | 12.78° C | 98% | 1011.9 hPa | 0 mm | - | - | - |
| 1778063133 | 11.67° C | 98% | 1011.8 hPa | 0 mm | - | - | - |
| 1778059532 | 11.11° C | 98% | 1011.6 hPa | 0 mm | - | - | - |
| 1778058333 | 11.11° C | 98% | 1011.3 hPa | 0 mm | - | - | - |
| 1778057132 | 11.11° C | 98% | 1011.5 hPa | 0 mm | - | - | - |
| 1778055932 | 11.67° C | 98% | 1011.3 hPa | 0 mm | - | - | - |
| 1778054733 | 11.67° C | 98% | 1011.1 hPa | 0 mm | - | - | - |
| 1778053532 | 12.22° C | 98% | 1010.9 hPa | 0 mm | - | - | - |
| 1778045164 | 11.67° C | 98% | 1010.8 hPa | 0 mm | - | - | - |
| 1778045131 | 11.67° C | 98% | 1010.8 hPa | 0 mm | - | - | - |
| 1778042731 | 12.22° C | 98% | 1010.9 hPa | 0 mm | - | - | - |
| 1778040331 | 11.67° C | 98% | 1010.6 hPa | 0 mm | - | - | - |
| 1778039139 | 11.67° C | 98% | 1010.6 hPa | 0 mm | - | - | - |
| 1778037931 | 11.67° C | 98% | 1010.6 hPa | 0 mm | - | - | - |
| 1778036731 | 12.22° C | 98% | 1010.6 hPa | 0 mm | - | - | - |
| 1778031931 | 13.89° C | 98% | 1010.8 hPa | 0 mm | - | - | - |
| 1778030731 | 13.89° C | 98% | 1010.6 hPa | 0 mm | - | - | - |
| 1778029532 | 13.89° C | 98% | 1010.3 hPa | 0 mm | - | - | - |
| 1778028331 | 13.89° C | 98% | 1009.8 hPa | 0 mm | - | - | - |
| 1778025932 | 14.44° C | 98% | 1009.4 hPa | 0 mm | - | - | - |
* Rain latest hour (hover to see other rain measurements)
** Current wind speed in m/s (hover to see current wind gust speed)